sensor_id;sensor_type;location;lat;lon;timestamp;temperature;humidity
24682;DHT22;12802;53.390;-2.328;2023-06-04T00:01:36;12.30;99.90
24682;DHT22;12802;53.390;-2.328;2023-06-04T00:04:01;12.10;99.90
24682;DHT22;12802;53.390;-2.328;2023-06-04T00:06:27;12.00;99.90
24682;DHT22;12802;53.390;-2.328;2023-06-04T00:08:53;11.90;99.90
24682;DHT22;12802;53.390;-2.328;2023-06-04T00:11:18;11.90;99.90
24682;DHT22;12802;53.390;-2.328;2023-06-04T00:13:45;11.90;99.90
24682;DHT22;12802;53.390;-2.328;2023-06-04T00:16:11;11.80;99.90
24682;DHT22;12802;53.390;-2.328;2023-06-04T00:18:36;11.80;99.90
24682;DHT22;12802;53.390;-2.328;2023-06-04T00:21:02;11.70;99.90
24682;DHT22;12802;53.390;-2.328;2023-06-04T00:23:27;11.60;99.90
24682;DHT22;12802;53.390;-2.328;2023-06-04T00:25:53;11.50;99.90
24682;DHT22;12802;53.390;-2.328;2023-06-04T00:28:19;11.40;99.90
24682;DHT22;12802;53.390;-2.328;2023-06-04T00:30:44;11.40;99.90
24682;DHT22;12802;53.390;-2.328;2023-06-04T00:33:10;11.20;99.90
24682;DHT22;12802;53.390;-2.328;2023-06-04T00:35:36;11.10;99.90
24682;DHT22;12802;53.390;-2.328;2023-06-04T00:38:01;11.10;99.90
24682;DHT22;12802;53.390;-2.328;2023-06-04T00:40:27;11.00;99.90
24682;DHT22;12802;53.390;-2.328;2023-06-04T00:42:53;11.00;99.90
24682;DHT22;12802;53.390;-2.328;2023-06-04T00:45:21;11.00;99.90
24682;DHT22;12802;53.390;-2.328;2023-06-04T00:47:46;11.00;99.90
24682;DHT22;12802;53.390;-2.328;2023-06-04T00:50:13;11.00;99.90
24682;DHT22;12802;53.390;-2.328;2023-06-04T00:52:39;11.00;99.90
24682;DHT22;12802;53.390;-2.328;2023-06-04T00:55:05;10.90;99.90
24682;DHT22;12802;53.390;-2.328;2023-06-04T00:57:31;10.90;99.90
24682;DHT22;12802;53.390;-2.328;2023-06-04T00:59:56;10.90;99.90
24682;DHT22;12802;53.390;-2.328;2023-06-04T01:02:22;10.80;99.90
24682;DHT22;12802;53.390;-2.328;2023-06-04T01:07:14;10.60;99.90
24682;DHT22;12802;53.390;-2.328;2023-06-04T01:09:40;10.60;99.90
24682;DHT22;12802;53.390;-2.328;2023-06-04T01:12:06;10.50;99.90
24682;DHT22;12802;53.390;-2.328;2023-06-04T01:14:32;10.50;99.90
24682;DHT22;12802;53.390;-2.328;2023-06-04T01:17:15;10.40;99.90
24682;DHT22;12802;53.390;-2.328;2023-06-04T01:25:04;10.30;99.90
24682;DHT22;12802;53.390;-2.328;2023-06-04T01:27:30;10.30;99.90
24682;DHT22;12802;53.390;-2.328;2023-06-04T01:29:58;10.30;99.90
24682;DHT22;12802;53.390;-2.328;2023-06-04T01:32:24;10.20;99.90
24682;DHT22;12802;53.390;-2.328;2023-06-04T01:34:50;10.30;99.90
24682;DHT22;12802;53.390;-2.328;2023-06-04T01:37:16;10.20;99.90
24682;DHT22;12802;53.390;-2.328;2023-06-04T01:39:42;10.10;99.90
24682;DHT22;12802;53.390;-2.328;2023-06-04T01:42:08;10.00;99.90
24682;DHT22;12802;53.390;-2.328;2023-06-04T01:44:34;9.90;99.90
24682;DHT22;12802;53.390;-2.328;2023-06-04T01:47:00;9.80;99.90
24682;DHT22;12802;53.390;-2.328;2023-06-04T01:49:25;9.80;99.90
24682;DHT22;12802;53.390;-2.328;2023-06-04T01:51:51;9.70;99.90
24682;DHT22;12802;53.390;-2.328;2023-06-04T01:54:17;9.70;99.90
24682;DHT22;12802;53.390;-2.328;2023-06-04T01:56:43;9.70;99.90
24682;DHT22;12802;53.390;-2.328;2023-06-04T01:59:08;9.70;99.90
24682;DHT22;12802;53.390;-2.328;2023-06-04T02:01:37;9.60;99.90
24682;DHT22;12802;53.390;-2.328;2023-06-04T02:04:03;9.70;99.90
24682;DHT22;12802;53.390;-2.328;2023-06-04T02:06:29;9.60;99.90
24682;DHT22;12802;53.390;-2.328;2023-06-04T02:08:55;9.50;99.90
24682;DHT22;12802;53.390;-2.328;2023-06-04T02:11:21;9.40;99.90
24682;DHT22;12802;53.390;-2.328;2023-06-04T02:13:47;9.50;99.90
24682;DHT22;12802;53.390;-2.328;2023-06-04T02:16:13;9.60;99.90
24682;DHT22;12802;53.390;-2.328;2023-06-04T02:18:38;9.60;99.90
24682;DHT22;12802;53.390;-2.328;2023-06-04T02:21:04;9.70;99.90
24682;DHT22;12802;53.390;-2.328;2023-06-04T02:23:30;9.70;99.90
24682;DHT22;12802;53.390;-2.328;2023-06-04T02:25:55;9.70;99.90
24682;DHT22;12802;53.390;-2.328;2023-06-04T02:28:21;9.50;99.90
24682;DHT22;12802;53.390;-2.328;2023-06-04T02:30:47;9.30;99.90
24682;DHT22;12802;53.390;-2.328;2023-06-04T02:33:13;9.10;99.90
24682;DHT22;12802;53.390;-2.328;2023-06-04T02:35:39;9.10;99.90
24682;DHT22;12802;53.390;-2.328;2023-06-04T02:38:05;9.10;99.90
24682;DHT22;12802;53.390;-2.328;2023-06-04T02:40:30;9.10;99.90
24682;DHT22;12802;53.390;-2.328;2023-06-04T02:42:56;9.10;99.90
24682;DHT22;12802;53.390;-2.328;2023-06-04T02:45:22;8.90;99.90
24682;DHT22;12802;53.390;-2.328;2023-06-04T02:47:48;8.80;99.90
24682;DHT22;12802;53.390;-2.328;2023-06-04T02:50:14;8.70;99.90
24682;DHT22;12802;53.390;-2.328;2023-06-04T02:52:43;8.70;99.90
24682;DHT22;12802;53.390;-2.328;2023-06-04T02:55:09;8.80;99.90
24682;DHT22;12802;53.390;-2.328;2023-06-04T02:57:38;8.80;99.90
24682;DHT22;12802;53.390;-2.328;2023-06-04T03:00:04;8.80;99.90
24682;DHT22;12802;53.390;-2.328;2023-06-04T03:02:46;8.80;99.90
24682;DHT22;12802;53.390;-2.328;2023-06-04T03:05:13;8.80;99.90
24682;DHT22;12802;53.390;-2.328;2023-06-04T03:07:41;8.90;99.90
24682;DHT22;12802;53.390;-2.328;2023-06-04T03:10:09;8.90;99.90
24682;DHT22;12802;53.390;-2.328;2023-06-04T03:12:35;8.80;99.90
24682;DHT22;12802;53.390;-2.328;2023-06-04T03:15:01;8.70;99.90
24682;DHT22;12802;53.390;-2.328;2023-06-04T03:17:26;8.60;99.90
24682;DHT22;12802;53.390;-2.328;2023-06-04T03:19:52;8.60;99.90
24682;DHT22;12802;53.390;-2.328;2023-06-04T03:22:18;8.60;99.90
24682;DHT22;12802;53.390;-2.328;2023-06-04T03:24:43;8.50;99.90
24682;DHT22;12802;53.390;-2.328;2023-06-04T03:27:09;8.50;99.90
24682;DHT22;12802;53.390;-2.328;2023-06-04T03:29:38;8.50;99.90
24682;DHT22;12802;53.390;-2.328;2023-06-04T03:32:05;8.50;99.90
24682;DHT22;12802;53.390;-2.328;2023-06-04T03:34:32;8.40;99.90
24682;DHT22;12802;53.390;-2.328;2023-06-04T03:36:57;8.40;99.90
24682;DHT22;12802;53.390;-2.328;2023-06-04T03:39:23;8.30;99.90
24682;DHT22;12802;53.390;-2.328;2023-06-04T03:41:49;8.30;99.90
24682;DHT22;12802;53.390;-2.328;2023-06-04T03:44:16;8.30;99.90
24682;DHT22;12802;53.390;-2.328;2023-06-04T03:46:42;8.30;99.90
24682;DHT22;12802;53.390;-2.328;2023-06-04T03:49:08;8.30;99.90
24682;DHT22;12802;53.390;-2.328;2023-06-04T03:51:34;8.30;99.90
24682;DHT22;12802;53.390;-2.328;2023-06-04T03:54:00;8.20;99.90
24682;DHT22;12802;53.390;-2.328;2023-06-04T03:56:27;8.10;99.90
24682;DHT22;12802;53.390;-2.328;2023-06-04T03:58:54;8.10;99.90
24682;DHT22;12802;53.390;-2.328;2023-06-04T04:01:20;8.10;99.90
24682;DHT22;12802;53.390;-2.328;2023-06-04T04:03:46;8.10;99.90
24682;DHT22;12802;53.390;-2.328;2023-06-04T04:06:15;8.10;99.90
24682;DHT22;12802;53.390;-2.328;2023-06-04T04:08:42;8.10;99.90
24682;DHT22;12802;53.390;-2.328;2023-06-04T04:11:13;8.10;99.90
24682;DHT22;12802;53.390;-2.328;2023-06-04T04:13:39;8.20;99.90
24682;DHT22;12802;53.390;-2.328;2023-06-04T04:16:05;8.20;99.90
24682;DHT22;12802;53.390;-2.328;2023-06-04T04:18:35;8.20;99.90
24682;DHT22;12802;53.390;-2.328;2023-06-04T04:21:01;8.20;99.90
24682;DHT22;12802;53.390;-2.328;2023-06-04T04:23:28;8.20;99.90
24682;DHT22;12802;53.390;-2.328;2023-06-04T04:25:53;8.20;99.90
24682;DHT22;12802;53.390;-2.328;2023-06-04T04:28:19;8.10;99.90
24682;DHT22;12802;53.390;-2.328;2023-06-04T04:30:46;8.10;99.90
24682;DHT22;12802;53.390;-2.328;2023-06-04T04:33:13;8.10;99.90
24682;DHT22;12802;53.390;-2.328;2023-06-04T04:35:44;8.00;99.90
24682;DHT22;12802;53.390;-2.328;2023-06-04T04:38:10;8.10;99.90
24682;DHT22;12802;53.390;-2.328;2023-06-04T04:40:43;8.10;99.90
24682;DHT22;12802;53.390;-2.328;2023-06-04T04:43:10;8.20;99.90
24682;DHT22;12802;53.390;-2.328;2023-06-04T04:45:36;8.20;99.90
24682;DHT22;12802;53.390;-2.328;2023-06-04T04:48:04;8.30;99.90
24682;DHT22;12802;53.390;-2.328;2023-06-04T04:50:30;8.30;99.90
24682;DHT22;12802;53.390;-2.328;2023-06-04T04:52:58;8.40;99.90
24682;DHT22;12802;53.390;-2.328;2023-06-04T04:55:24;8.50;99.90
24682;DHT22;12802;53.390;-2.328;2023-06-04T04:57:51;8.70;99.90
24682;DHT22;12802;53.390;-2.328;2023-06-04T05:00:18;8.80;99.90
24682;DHT22;12802;53.390;-2.328;2023-06-04T05:02:47;9.00;99.90
24682;DHT22;12802;53.390;-2.328;2023-06-04T05:05:13;9.20;99.90
24682;DHT22;12802;53.390;-2.328;2023-06-04T05:07:41;9.40;99.90
24682;DHT22;12802;53.390;-2.328;2023-06-04T05:10:07;9.50;99.90
24682;DHT22;12802;53.390;-2.328;2023-06-04T05:12:34;9.70;99.90
24682;DHT22;12802;53.390;-2.328;2023-06-04T05:15:01;9.80;99.90
24682;DHT22;12802;53.390;-2.328;2023-06-04T05:17:28;9.90;99.90
24682;DHT22;12802;53.390;-2.328;2023-06-04T05:20:02;10.00;99.90
24682;DHT22;12802;53.390;-2.328;2023-06-04T05:22:30;10.10;99.90
24682;DHT22;12802;53.390;-2.328;2023-06-04T05:24:57;10.20;99.90
24682;DHT22;12802;53.390;-2.328;2023-06-04T05:27:25;10.30;99.90
24682;DHT22;12802;53.390;-2.328;2023-06-04T05:29:51;10.30;99.90
24682;DHT22;12802;53.390;-2.328;2023-06-04T05:32:17;10.30;99.90
24682;DHT22;12802;53.390;-2.328;2023-06-04T05:34:43;10.40;99.90
24682;DHT22;12802;53.390;-2.328;2023-06-04T05:37:09;10.40;99.90
24682;DHT22;12802;53.390;-2.328;2023-06-04T05:39:35;10.40;99.90
24682;DHT22;12802;53.390;-2.328;2023-06-04T05:42:09;10.50;99.90
24682;DHT22;12802;53.390;-2.328;2023-06-04T05:44:35;10.60;99.90
24682;DHT22;12802;53.390;-2.328;2023-06-04T05:47:01;10.60;99.90
24682;DHT22;12802;53.390;-2.328;2023-06-04T05:49:27;10.70;99.90
24682;DHT22;12802;53.390;-2.328;2023-06-04T05:51:55;10.80;99.90
24682;DHT22;12802;53.390;-2.328;2023-06-04T05:54:21;10.90;99.90
24682;DHT22;12802;53.390;-2.328;2023-06-04T05:56:48;10.90;99.90
24682;DHT22;12802;53.390;-2.328;2023-06-04T05:59:14;11.00;99.90
24682;DHT22;12802;53.390;-2.328;2023-06-04T06:01:40;11.00;99.90
24682;DHT22;12802;53.390;-2.328;2023-06-04T06:04:06;11.00;99.90
24682;DHT22;12802;53.390;-2.328;2023-06-04T06:06:32;11.00;99.90
24682;DHT22;12802;53.390;-2.328;2023-06-04T06:08:58;11.10;99.90
24682;DHT22;12802;53.390;-2.328;2023-06-04T06:11:24;11.00;99.90
24682;DHT22;12802;53.390;-2.328;2023-06-04T06:13:53;11.00;99.90
24682;DHT22;12802;53.390;-2.328;2023-06-04T06:16:18;11.10;99.90
24682;DHT22;12802;53.390;-2.328;2023-06-04T06:18:44;11.20;99.90
24682;DHT22;12802;53.390;-2.328;2023-06-04T06:21:10;11.20;99.90
24682;DHT22;12802;53.390;-2.328;2023-06-04T06:23:37;11.30;99.90
24682;DHT22;12802;53.390;-2.328;2023-06-04T06:26:03;11.40;99.90
24682;DHT22;12802;53.390;-2.328;2023-06-04T06:28:35;11.40;99.90
24682;DHT22;12802;53.390;-2.328;2023-06-04T06:31:02;11.50;99.90
24682;DHT22;12802;53.390;-2.328;2023-06-04T06:33:27;11.60;99.90
24682;DHT22;12802;53.390;-2.328;2023-06-04T06:35:53;11.60;99.90
24682;DHT22;12802;53.390;-2.328;2023-06-04T06:38:19;11.60;99.90
24682;DHT22;12802;53.390;-2.328;2023-06-04T06:40:45;11.60;99.90
24682;DHT22;12802;53.390;-2.328;2023-06-04T06:43:11;11.60;99.90
24682;DHT22;12802;53.390;-2.328;2023-06-04T06:45:36;11.60;99.90
24682;DHT22;12802;53.390;-2.328;2023-06-04T06:48:02;11.60;99.90
24682;DHT22;12802;53.390;-2.328;2023-06-04T06:50:29;11.70;99.90
24682;DHT22;12802;53.390;-2.328;2023-06-04T06:52:55;11.80;99.90
24682;DHT22;12802;53.390;-2.328;2023-06-04T06:55:20;11.90;99.90
24682;DHT22;12802;53.390;-2.328;2023-06-04T06:57:46;11.90;99.90
24682;DHT22;12802;53.390;-2.328;2023-06-04T07:00:12;12.00;99.90
24682;DHT22;12802;53.390;-2.328;2023-06-04T07:02:37;12.00;99.90
24682;DHT22;12802;53.390;-2.328;2023-06-04T07:05:03;12.10;99.90
24682;DHT22;12802;53.390;-2.328;2023-06-04T07:07:29;12.10;99.90
24682;DHT22;12802;53.390;-2.328;2023-06-04T07:09:55;12.20;99.90
24682;DHT22;12802;53.390;-2.328;2023-06-04T07:12:20;12.30;99.90
24682;DHT22;12802;53.390;-2.328;2023-06-04T07:14:46;12.30;99.90
24682;DHT22;12802;53.390;-2.328;2023-06-04T07:17:12;12.40;99.90
24682;DHT22;12802;53.390;-2.328;2023-06-04T07:19:38;12.50;99.90
24682;DHT22;12802;53.390;-2.328;2023-06-04T07:22:03;12.50;99.90
24682;DHT22;12802;53.390;-2.328;2023-06-04T07:24:29;12.70;99.90
24682;DHT22;12802;53.390;-2.328;2023-06-04T07:26:54;12.80;99.90
24682;DHT22;12802;53.390;-2.328;2023-06-04T07:29:20;12.80;99.90
24682;DHT22;12802;53.390;-2.328;2023-06-04T07:31:46;12.90;99.90
24682;DHT22;12802;53.390;-2.328;2023-06-04T07:34:11;13.00;99.90
24682;DHT22;12802;53.390;-2.328;2023-06-04T07:36:37;13.00;99.90
24682;DHT22;12802;53.390;-2.328;2023-06-04T07:39:03;13.10;99.90
24682;DHT22;12802;53.390;-2.328;2023-06-04T07:41:30;13.10;99.90
24682;DHT22;12802;53.390;-2.328;2023-06-04T07:43:55;13.20;99.90
24682;DHT22;12802;53.390;-2.328;2023-06-04T07:46:21;13.30;99.90
24682;DHT22;12802;53.390;-2.328;2023-06-04T07:48:46;13.40;99.90
24682;DHT22;12802;53.390;-2.328;2023-06-04T07:51:12;13.50;99.90
24682;DHT22;12802;53.390;-2.328;2023-06-04T07:53:38;13.60;99.90
24682;DHT22;12802;53.390;-2.328;2023-06-04T07:56:05;13.60;99.90
24682;DHT22;12802;53.390;-2.328;2023-06-04T07:58:31;13.70;99.90
24682;DHT22;12802;53.390;-2.328;2023-06-04T08:00:56;13.80;99.90
24682;DHT22;12802;53.390;-2.328;2023-06-04T08:03:22;13.80;99.90
24682;DHT22;12802;53.390;-2.328;2023-06-04T08:05:48;13.90;99.90
24682;DHT22;12802;53.390;-2.328;2023-06-04T08:08:14;13.90;99.90
24682;DHT22;12802;53.390;-2.328;2023-06-04T08:10:40;14.00;99.90
24682;DHT22;12802;53.390;-2.328;2023-06-04T08:13:06;14.10;99.90
24682;DHT22;12802;53.390;-2.328;2023-06-04T08:15:32;14.20;99.90
24682;DHT22;12802;53.390;-2.328;2023-06-04T08:17:57;14.30;99.90
24682;DHT22;12802;53.390;-2.328;2023-06-04T08:20:23;14.40;99.90
24682;DHT22;12802;53.390;-2.328;2023-06-04T08:22:49;14.60;99.90
24682;DHT22;12802;53.390;-2.328;2023-06-04T08:25:14;14.80;99.90
24682;DHT22;12802;53.390;-2.328;2023-06-04T08:27:41;14.80;99.90
24682;DHT22;12802;53.390;-2.328;2023-06-04T08:30:07;14.90;99.90
24682;DHT22;12802;53.390;-2.328;2023-06-04T08:32:32;15.10;99.90
24682;DHT22;12802;53.390;-2.328;2023-06-04T08:34:58;15.10;99.90
24682;DHT22;12802;53.390;-2.328;2023-06-04T08:37:24;15.10;99.90
24682;DHT22;12802;53.390;-2.328;2023-06-04T08:39:50;15.20;99.90
24682;DHT22;12802;53.390;-2.328;2023-06-04T08:42:18;15.10;99.90
24682;DHT22;12802;53.390;-2.328;2023-06-04T08:44:50;15.10;99.90
24682;DHT22;12802;53.390;-2.328;2023-06-04T08:47:18;15.30;99.90
24682;DHT22;12802;53.390;-2.328;2023-06-04T08:49:44;15.40;99.90
24682;DHT22;12802;53.390;-2.328;2023-06-04T08:52:13;15.50;99.90
24682;DHT22;12802;53.390;-2.328;2023-06-04T08:54:39;15.70;99.90
24682;DHT22;12802;53.390;-2.328;2023-06-04T08:57:05;15.80;99.90
24682;DHT22;12802;53.390;-2.328;2023-06-04T08:59:31;15.70;99.90
24682;DHT22;12802;53.390;-2.328;2023-06-04T09:01:57;15.90;99.90
24682;DHT22;12802;53.390;-2.328;2023-06-04T09:04:23;16.10;99.90
24682;DHT22;12802;53.390;-2.328;2023-06-04T09:06:49;16.00;99.90
24682;DHT22;12802;53.390;-2.328;2023-06-04T09:09:15;16.10;99.90
24682;DHT22;12802;53.390;-2.328;2023-06-04T09:11:52;16.40;99.90
24682;DHT22;12802;53.390;-2.328;2023-06-04T09:14:18;16.40;99.90
24682;DHT22;12802;53.390;-2.328;2023-06-04T09:16:48;16.50;99.90
24682;DHT22;12802;53.390;-2.328;2023-06-04T09:19:14;16.50;99.90
24682;DHT22;12802;53.390;-2.328;2023-06-04T09:21:47;16.50;99.90
24682;DHT22;12802;53.390;-2.328;2023-06-04T09:24:13;16.60;99.90
24682;DHT22;12802;53.390;-2.328;2023-06-04T09:26:39;16.80;99.90
24682;DHT22;12802;53.390;-2.328;2023-06-04T09:29:04;16.90;99.90
24682;DHT22;12802;53.390;-2.328;2023-06-04T09:31:31;17.10;99.90
24682;DHT22;12802;53.390;-2.328;2023-06-04T09:34:02;17.20;99.90
24682;DHT22;12802;53.390;-2.328;2023-06-04T09:36:31;17.40;99.90
24682;DHT22;12802;53.390;-2.328;2023-06-04T09:38:57;17.40;99.90
24682;DHT22;12802;53.390;-2.328;2023-06-04T09:41:23;17.50;99.90
24682;DHT22;12802;53.390;-2.328;2023-06-04T09:43:49;17.60;99.90
24682;DHT22;12802;53.390;-2.328;2023-06-04T09:46:15;18.00;99.90
24682;DHT22;12802;53.390;-2.328;2023-06-04T09:48:42;18.10;99.90
24682;DHT22;12802;53.390;-2.328;2023-06-04T09:51:08;18.30;99.90
24682;DHT22;12802;53.390;-2.328;2023-06-04T09:53:34;18.30;99.90
24682;DHT22;12802;53.390;-2.328;2023-06-04T09:56:01;18.30;99.90
24682;DHT22;12802;53.390;-2.328;2023-06-04T09:58:27;18.50;99.90
24682;DHT22;12802;53.390;-2.328;2023-06-04T10:01:01;18.50;99.90
24682;DHT22;12802;53.390;-2.328;2023-06-04T10:03:30;19.00;99.90
24682;DHT22;12802;53.390;-2.328;2023-06-04T10:05:58;18.90;99.90
24682;DHT22;12802;53.390;-2.328;2023-06-04T10:08:29;19.10;99.90
24682;DHT22;12802;53.390;-2.328;2023-06-04T10:10:56;19.10;99.90
24682;DHT22;12802;53.390;-2.328;2023-06-04T10:13:23;19.10;99.90
24682;DHT22;12802;53.390;-2.328;2023-06-04T10:15:50;19.00;99.90
24682;DHT22;12802;53.390;-2.328;2023-06-04T10:18:16;19.20;99.90
24682;DHT22;12802;53.390;-2.328;2023-06-04T10:20:41;19.30;99.90
24682;DHT22;12802;53.390;-2.328;2023-06-04T10:23:07;19.30;99.90
24682;DHT22;12802;53.390;-2.328;2023-06-04T10:25:36;19.30;99.90
24682;DHT22;12802;53.390;-2.328;2023-06-04T10:28:03;19.50;99.90
24682;DHT22;12802;53.390;-2.328;2023-06-04T10:30:29;19.60;99.90
24682;DHT22;12802;53.390;-2.328;2023-06-04T10:32:56;19.80;99.90
24682;DHT22;12802;53.390;-2.328;2023-06-04T10:35:34;20.00;99.90
24682;DHT22;12802;53.390;-2.328;2023-06-04T10:38:13;20.10;99.90
24682;DHT22;12802;53.390;-2.328;2023-06-04T10:40:39;20.10;99.90
24682;DHT22;12802;53.390;-2.328;2023-06-04T10:43:05;20.20;99.90
24682;DHT22;12802;53.390;-2.328;2023-06-04T10:45:31;20.00;99.90
24682;DHT22;12802;53.390;-2.328;2023-06-04T10:48:01;20.20;99.90
24682;DHT22;12802;53.390;-2.328;2023-06-04T10:50:26;20.10;99.90
24682;DHT22;12802;53.390;-2.328;2023-06-04T10:52:52;20.30;99.90
24682;DHT22;12802;53.390;-2.328;2023-06-04T10:55:18;20.50;99.90
24682;DHT22;12802;53.390;-2.328;2023-06-04T10:57:59;20.60;99.90
24682;DHT22;12802;53.390;-2.328;2023-06-04T11:00:38;20.70;99.90
24682;DHT22;12802;53.390;-2.328;2023-06-04T11:03:05;20.80;99.90
24682;DHT22;12802;53.390;-2.328;2023-06-04T11:05:35;20.60;99.90
24682;DHT22;12802;53.390;-2.328;2023-06-04T11:08:01;20.50;99.90
24682;DHT22;12802;53.390;-2.328;2023-06-04T11:10:31;20.50;99.90
24682;DHT22;12802;53.390;-2.328;2023-06-04T11:12:58;20.60;99.90
24682;DHT22;12802;53.390;-2.328;2023-06-04T11:15:23;20.70;99.90
24682;DHT22;12802;53.390;-2.328;2023-06-04T11:17:53;21.00;99.90
24682;DHT22;12802;53.390;-2.328;2023-06-04T11:20:19;21.00;99.90
24682;DHT22;12802;53.390;-2.328;2023-06-04T11:25:17;21.30;99.90
24682;DHT22;12802;53.390;-2.328;2023-06-04T11:27:42;21.40;99.90
24682;DHT22;12802;53.390;-2.328;2023-06-04T11:30:08;21.40;99.90
24682;DHT22;12802;53.390;-2.328;2023-06-04T11:32:34;21.10;99.90
24682;DHT22;12802;53.390;-2.328;2023-06-04T11:35:03;21.40;99.90
24682;DHT22;12802;53.390;-2.328;2023-06-04T11:37:31;21.30;99.90
24682;DHT22;12802;53.390;-2.328;2023-06-04T11:39:58;21.40;99.90
24682;DHT22;12802;53.390;-2.328;2023-06-04T11:42:23;21.40;99.90
24682;DHT22;12802;53.390;-2.328;2023-06-04T11:44:54;21.20;99.90
24682;DHT22;12802;53.390;-2.328;2023-06-04T11:47:20;21.40;99.90
24682;DHT22;12802;53.390;-2.328;2023-06-04T11:49:45;21.60;99.90
24682;DHT22;12802;53.390;-2.328;2023-06-04T11:52:11;21.60;99.90
24682;DHT22;12802;53.390;-2.328;2023-06-04T11:54:37;21.70;99.90
24682;DHT22;12802;53.390;-2.328;2023-06-04T11:57:03;21.80;99.90
24682;DHT22;12802;53.390;-2.328;2023-06-04T11:59:30;21.90;99.90
24682;DHT22;12802;53.390;-2.328;2023-06-04T12:01:56;21.90;99.90
24682;DHT22;12802;53.390;-2.328;2023-06-04T12:04:22;21.70;99.90
24682;DHT22;12802;53.390;-2.328;2023-06-04T12:06:55;21.80;99.90
24682;DHT22;12802;53.390;-2.328;2023-06-04T12:09:25;21.90;99.90
24682;DHT22;12802;53.390;-2.328;2023-06-04T12:12:01;22.00;99.90
24682;DHT22;12802;53.390;-2.328;2023-06-04T12:14:27;21.80;99.90
24682;DHT22;12802;53.390;-2.328;2023-06-04T12:19:21;21.90;99.90
24682;DHT22;12802;53.390;-2.328;2023-06-04T12:21:47;22.00;99.90
24682;DHT22;12802;53.390;-2.328;2023-06-04T12:24:23;22.30;99.90
24682;DHT22;12802;53.390;-2.328;2023-06-04T12:26:49;22.30;99.90
24682;DHT22;12802;53.390;-2.328;2023-06-04T12:29:25;21.90;99.90
24682;DHT22;12802;53.390;-2.328;2023-06-04T12:31:51;22.20;99.90
24682;DHT22;12802;53.390;-2.328;2023-06-04T12:34:26;22.50;99.90
24682;DHT22;12802;53.390;-2.328;2023-06-04T12:36:52;22.90;99.90
24682;DHT22;12802;53.390;-2.328;2023-06-04T12:39:17;22.50;99.90
24682;DHT22;12802;53.390;-2.328;2023-06-04T12:41:46;22.50;99.90
24682;DHT22;12802;53.390;-2.328;2023-06-04T12:44:12;22.40;99.90
24682;DHT22;12802;53.390;-2.328;2023-06-04T12:46:37;22.60;99.90
24682;DHT22;12802;53.390;-2.328;2023-06-04T12:49:03;22.70;99.90
24682;DHT22;12802;53.390;-2.328;2023-06-04T12:51:29;22.70;99.90
24682;DHT22;12802;53.390;-2.328;2023-06-04T12:53:54;22.60;99.90
24682;DHT22;12802;53.390;-2.328;2023-06-04T12:56:20;22.70;99.90
24682;DHT22;12802;53.390;-2.328;2023-06-04T12:58:45;22.80;99.90
24682;DHT22;12802;53.390;-2.328;2023-06-04T13:01:11;23.00;99.90
24682;DHT22;12802;53.390;-2.328;2023-06-04T13:03:39;22.70;99.90
24682;DHT22;12802;53.390;-2.328;2023-06-04T13:06:05;22.50;99.90
24682;DHT22;12802;53.390;-2.328;2023-06-04T13:08:31;22.50;99.90
24682;DHT22;12802;53.390;-2.328;2023-06-04T13:10:57;22.60;99.90
24682;DHT22;12802;53.390;-2.328;2023-06-04T13:13:22;22.70;99.90
24682;DHT22;12802;53.390;-2.328;2023-06-04T13:15:48;22.70;99.90
24682;DHT22;12802;53.390;-2.328;2023-06-04T13:18:14;22.40;99.90
24682;DHT22;12802;53.390;-2.328;2023-06-04T13:20:40;22.60;99.90
24682;DHT22;12802;53.390;-2.328;2023-06-04T13:23:06;22.70;99.90
24682;DHT22;12802;53.390;-2.328;2023-06-04T13:25:32;22.80;99.90
24682;DHT22;12802;53.390;-2.328;2023-06-04T13:28:01;22.40;99.90
24682;DHT22;12802;53.390;-2.328;2023-06-04T13:30:26;22.60;99.90
24682;DHT22;12802;53.390;-2.328;2023-06-04T13:32:52;22.80;99.90
24682;DHT22;12802;53.390;-2.328;2023-06-04T13:35:18;23.00;99.90
24682;DHT22;12802;53.390;-2.328;2023-06-04T13:37:43;23.10;99.90
24682;DHT22;12802;53.390;-2.328;2023-06-04T13:40:09;23.40;99.90
24682;DHT22;12802;53.390;-2.328;2023-06-04T13:42:35;23.60;99.90
24682;DHT22;12802;53.390;-2.328;2023-06-04T13:45:00;23.30;99.90
24682;DHT22;12802;53.390;-2.328;2023-06-04T13:47:26;23.20;99.90
24682;DHT22;12802;53.390;-2.328;2023-06-04T13:49:52;23.30;99.90
24682;DHT22;12802;53.390;-2.328;2023-06-04T13:52:17;23.70;99.90
24682;DHT22;12802;53.390;-2.328;2023-06-04T13:54:43;23.70;99.90
24682;DHT22;12802;53.390;-2.328;2023-06-04T13:57:09;23.90;99.90
24682;DHT22;12802;53.390;-2.328;2023-06-04T13:59:38;24.10;99.90
24682;DHT22;12802;53.390;-2.328;2023-06-04T14:02:03;24.00;99.90
24682;DHT22;12802;53.390;-2.328;2023-06-04T14:04:29;24.10;99.90
24682;DHT22;12802;53.390;-2.328;2023-06-04T14:06:55;24.50;99.90
24682;DHT22;12802;53.390;-2.328;2023-06-04T14:09:21;24.80;99.90
24682;DHT22;12802;53.390;-2.328;2023-06-04T14:11:46;25.30;99.90
24682;DHT22;12802;53.390;-2.328;2023-06-04T14:14:18;25.90;99.90
24682;DHT22;12802;53.390;-2.328;2023-06-04T14:16:45;25.60;98.20
24682;DHT22;12802;53.390;-2.328;2023-06-04T14:19:11;25.60;99.20
24682;DHT22;12802;53.390;-2.328;2023-06-04T14:21:36;25.80;98.90
24682;DHT22;12802;53.390;-2.328;2023-06-04T14:24:02;25.70;98.00
24682;DHT22;12802;53.390;-2.328;2023-06-04T14:26:28;25.50;97.90
24682;DHT22;12802;53.390;-2.328;2023-06-04T14:28:56;25.90;97.70
24682;DHT22;12802;53.390;-2.328;2023-06-04T14:31:22;25.40;97.50
24682;DHT22;12802;53.390;-2.328;2023-06-04T14:33:48;25.40;97.60
24682;DHT22;12802;53.390;-2.328;2023-06-04T14:36:14;25.80;97.70
24682;DHT22;12802;53.390;-2.328;2023-06-04T14:38:40;25.80;97.20
24682;DHT22;12802;53.390;-2.328;2023-06-04T14:41:06;26.20;97.50
24682;DHT22;12802;53.390;-2.328;2023-06-04T14:43:31;26.50;97.10
24682;DHT22;12802;53.390;-2.328;2023-06-04T14:45:57;26.70;97.70
24682;DHT22;12802;53.390;-2.328;2023-06-04T14:48:23;25.60;97.50
24682;DHT22;12802;53.390;-2.328;2023-06-04T14:50:48;25.70;98.80
24682;DHT22;12802;53.390;-2.328;2023-06-04T14:53:14;25.20;97.30
24682;DHT22;12802;53.390;-2.328;2023-06-04T14:55:40;24.90;98.30
24682;DHT22;12802;53.390;-2.328;2023-06-04T14:58:06;24.60;98.20
24682;DHT22;12802;53.390;-2.328;2023-06-04T15:00:31;24.50;97.70
24682;DHT22;12802;53.390;-2.328;2023-06-04T15:02:57;24.90;98.30
24682;DHT22;12802;53.390;-2.328;2023-06-04T15:05:23;24.90;97.80
24682;DHT22;12802;53.390;-2.328;2023-06-04T15:07:49;25.40;97.90
24682;DHT22;12802;53.390;-2.328;2023-06-04T15:10:14;26.10;98.70
24682;DHT22;12802;53.390;-2.328;2023-06-04T15:12:40;26.00;97.20
24682;DHT22;12802;53.390;-2.328;2023-06-04T15:15:06;25.90;97.10
24682;DHT22;12802;53.390;-2.328;2023-06-04T15:17:33;25.90;96.80
24682;DHT22;12802;53.390;-2.328;2023-06-04T15:19:59;25.20;96.00
24682;DHT22;12802;53.390;-2.328;2023-06-04T15:22:25;25.80;96.30
24682;DHT22;12802;53.390;-2.328;2023-06-04T15:24:52;25.10;96.30
24682;DHT22;12802;53.390;-2.328;2023-06-04T15:27:18;25.30;97.30
24682;DHT22;12802;53.390;-2.328;2023-06-04T15:29:44;25.50;97.30